createdAt,value
2022-10-11T00:00:45.790Z,38.10
2022-10-11T00:01:45.724Z,23.70
2022-10-11T00:02:45.663Z,39.40
2022-10-11T00:03:45.561Z,41.50
2022-10-11T00:04:45.508Z,39.90
2022-10-11T00:05:45.434Z,39.90
2022-10-11T00:06:45.391Z,27.90
2022-10-11T00:07:45.301Z,26.30
2022-10-11T00:08:45.252Z,34.00
2022-10-11T00:09:45.183Z,56.30
2022-10-11T00:10:45.123Z,33.40
2022-10-11T00:11:45.050Z,32.90
2022-10-11T00:12:45.009Z,34.80
2022-10-11T00:13:44.933Z,52.70
2022-10-11T00:14:44.871Z,35.60
2022-10-11T00:15:44.830Z,47.70
2022-10-11T00:16:44.742Z,24.90
2022-10-11T00:17:44.674Z,37.60
2022-10-11T00:18:44.619Z,30.20
2022-10-11T00:19:44.563Z,39.40
2022-10-11T00:20:44.511Z,24.50
2022-10-11T00:21:44.423Z,32.60
2022-10-11T00:22:44.383Z,49.80
2022-10-11T00:23:44.298Z,54.40
2022-10-11T00:24:44.218Z,31.70
2022-10-11T00:25:44.195Z,29.40
2022-10-11T00:26:47.144Z,25.20
2022-10-11T00:27:44.038Z,46.80
2022-10-11T00:28:44.053Z,37.80
2022-10-11T00:29:43.945Z,38.00
2022-10-11T00:30:43.850Z,41.80
2022-10-11T00:31:43.818Z,35.00
2022-10-11T00:32:43.737Z,31.50
2022-10-11T00:33:43.661Z,57.30
2022-10-11T00:34:43.615Z,41.00
2022-10-11T00:35:43.528Z,33.30
2022-10-11T00:36:43.505Z,28.90
2022-10-11T00:37:43.401Z,34.10
2022-10-11T00:38:43.336Z,42.30
2022-10-11T00:39:43.286Z,46.70
2022-10-11T00:40:44.204Z,37.10
2022-10-11T00:41:43.152Z,31.30
2022-10-11T00:42:43.108Z,35.00
2022-10-11T00:43:43.010Z,43.70
2022-10-11T00:44:45.279Z,38.50
2022-10-11T00:45:42.874Z,30.30
2022-10-11T00:46:42.821Z,43.20
2022-10-11T00:47:43.696Z,31.00
2022-10-11T00:48:42.692Z,44.00
2022-10-11T00:49:42.628Z,49.50
2022-10-11T00:50:42.606Z,48.50
2022-10-11T00:51:42.541Z,45.40
2022-10-11T00:52:42.443Z,39.30
2022-10-11T00:53:42.376Z,33.70
2022-10-11T00:54:42.355Z,40.40
2022-10-11T00:55:42.262Z,40.60
2022-10-11T00:56:42.191Z,31.30
2022-10-11T00:57:42.168Z,32.90
2022-10-11T00:58:42.054Z,28.80
2022-10-11T00:59:41.978Z,44.60
2022-10-11T01:00:41.938Z,32.10
2022-10-11T01:01:41.940Z,42.70
2022-10-11T01:02:43.033Z,36.30
2022-10-11T01:03:41.749Z,28.80
2022-10-11T01:04:41.655Z,44.00
2022-10-11T01:05:41.606Z,39.70
2022-10-11T01:06:41.557Z,50.70
2022-10-11T01:07:41.466Z,32.80
2022-10-11T01:08:41.424Z,34.80
2022-10-11T01:09:41.348Z,31.90
2022-10-11T01:10:41.285Z,28.80
2022-10-11T01:11:41.220Z,23.30
2022-10-11T01:12:41.171Z,28.00
2022-10-11T01:13:41.100Z,35.10
2022-10-11T01:14:41.033Z,36.40
2022-10-11T01:15:40.948Z,27.00
2022-10-11T01:16:40.899Z,27.10
2022-10-11T01:17:40.842Z,43.70
2022-10-11T01:18:40.756Z,31.20
2022-10-11T01:19:40.709Z,46.00
2022-10-11T01:20:40.643Z,29.50
2022-10-11T01:21:40.560Z,33.90
2022-10-11T01:22:40.518Z,34.80
2022-10-11T01:23:40.458Z,33.20
2022-10-11T01:24:40.389Z,34.10
2022-10-11T01:25:40.323Z,38.30
2022-10-11T01:26:40.329Z,46.40
2022-10-11T01:27:40.192Z,39.60
2022-10-11T01:28:40.413Z,37.60
2022-10-11T01:29:40.056Z,29.20
2022-10-11T01:30:39.996Z,24.80
2022-10-11T01:31:39.935Z,32.10
2022-10-11T01:32:39.889Z,49.20
2022-10-11T01:33:39.819Z,39.80
2022-10-11T01:34:39.730Z,40.00
2022-10-11T01:35:39.688Z,35.70
2022-10-11T01:36:39.614Z,30.20
2022-10-11T01:37:39.559Z,33.10
2022-10-11T01:38:39.503Z,43.10
2022-10-11T01:39:39.422Z,42.00
2022-10-11T01:40:39.362Z,46.70
2022-10-11T01:41:39.283Z,38.20
2022-10-11T01:42:39.229Z,38.20
2022-10-11T01:43:39.166Z,50.50
2022-10-11T01:44:41.516Z,51.30
2022-10-11T01:45:39.047Z,34.00
2022-10-11T01:46:38.978Z,38.50
2022-10-11T01:47:38.945Z,34.70
2022-10-11T01:48:38.849Z,30.10
2022-10-11T01:49:38.770Z,47.20
2022-10-11T01:50:38.724Z,41.60
2022-10-11T01:51:38.653Z,57.80
2022-10-11T01:52:38.593Z,48.70
2022-10-11T01:53:38.535Z,44.30
2022-10-11T01:55:07.551Z,45.50
2022-10-11T01:55:38.394Z,33.60
2022-10-11T01:56:38.367Z,39.70
2022-10-11T01:57:38.274Z,46.60
2022-10-11T01:58:38.194Z,41.00
2022-10-11T01:59:38.145Z,46.70
2022-10-11T02:00:38.081Z,46.60
2022-10-11T02:01:38.039Z,38.00
2022-10-11T02:02:38.765Z,46.30
2022-10-11T02:03:37.889Z,26.70
2022-10-11T02:04:37.840Z,40.70
2022-10-11T02:05:37.758Z,44.20
2022-10-11T02:06:37.690Z,47.40
2022-10-11T02:07:37.631Z,45.80
2022-10-11T02:08:39.117Z,37.90
2022-10-11T02:09:37.503Z,35.90
2022-10-11T02:10:37.435Z,31.60
2022-10-11T02:11:37.360Z,32.10
2022-10-11T02:12:37.312Z,40.30
2022-10-11T02:13:37.243Z,41.90
2022-10-11T02:14:37.171Z,36.70
2022-10-11T02:15:37.103Z,49.40
2022-10-11T02:16:37.040Z,47.00
2022-10-11T02:17:37.011Z,37.90
2022-10-11T02:18:36.919Z,42.50
2022-10-11T02:19:36.882Z,54.60
2022-10-11T02:20:36.799Z,41.50
2022-10-11T02:21:36.736Z,58.60
2022-10-11T02:22:36.655Z,56.80
2022-10-11T02:23:36.586Z,32.20
2022-10-11T02:24:36.542Z,42.00
2022-10-11T02:25:36.469Z,31.70
2022-10-11T02:26:36.415Z,36.90
2022-10-11T02:27:36.343Z,47.70
2022-10-11T02:28:36.352Z,46.30
2022-10-11T02:29:36.232Z,32.30
2022-10-11T02:30:36.157Z,40.00
2022-10-11T02:31:36.072Z,41.90
2022-10-11T02:32:37.139Z,47.50
2022-10-11T02:33:35.951Z,48.80
2022-10-11T02:34:35.897Z,41.30
2022-10-11T02:35:35.836Z,40.20
2022-10-11T02:36:35.758Z,38.50
2022-10-11T02:37:35.690Z,48.10
2022-10-11T02:38:35.660Z,42.00
2022-10-11T02:39:35.579Z,51.90
2022-10-11T02:40:35.524Z,39.60
2022-10-11T02:41:35.450Z,48.40
2022-10-11T02:42:35.367Z,60.80
2022-10-11T02:43:35.321Z,38.30
2022-10-11T02:44:35.262Z,58.20
2022-10-11T02:45:35.186Z,52.00
2022-10-11T02:46:35.112Z,49.20
2022-10-11T02:47:35.048Z,56.00
2022-10-11T02:48:34.989Z,49.40
2022-10-11T02:49:34.939Z,53.00
2022-10-11T02:50:36.092Z,46.70
2022-10-11T02:51:34.788Z,48.30
2022-10-11T02:52:34.732Z,58.20
2022-10-11T02:53:34.661Z,50.40
2022-10-11T02:54:34.600Z,65.40
2022-10-11T02:55:34.537Z,40.40
2022-10-11T02:56:35.247Z,53.30
2022-10-11T02:57:34.418Z,43.80
2022-10-11T02:58:34.363Z,42.60
2022-10-11T02:59:34.275Z,41.80
2022-10-11T03:00:34.222Z,36.80
2022-10-11T03:01:34.246Z,46.40
2022-10-11T03:02:34.102Z,40.10
2022-10-11T03:03:34.069Z,36.40
2022-10-11T03:04:33.977Z,60.30
2022-10-11T03:05:33.896Z,45.20
2022-10-11T03:06:33.824Z,63.20
2022-10-11T03:07:33.789Z,48.50
2022-10-11T03:08:34.507Z,53.60
2022-10-11T03:09:33.662Z,48.00
2022-10-11T03:10:33.575Z,65.70
2022-10-11T03:11:33.502Z,57.10
2022-10-11T03:12:33.456Z,49.80
2022-10-11T03:13:33.389Z,39.70
2022-10-11T03:14:34.137Z,57.20
2022-10-11T03:15:33.270Z,37.00
2022-10-11T03:16:33.181Z,50.20
2022-10-11T03:17:37.317Z,53.20
2022-10-11T03:18:33.099Z,53.10
2022-10-11T03:19:34.496Z,37.40
2022-10-11T03:20:32.973Z,62.40
2022-10-11T03:21:32.878Z,43.10
2022-10-11T03:22:32.811Z,36.60
2022-10-11T03:23:32.746Z,44.70
2022-10-11T03:24:32.672Z,47.80
2022-10-11T03:25:32.621Z,37.30
2022-10-11T03:26:33.325Z,56.30
2022-10-11T03:27:32.489Z,40.00
2022-10-11T03:28:32.515Z,48.80
2022-10-11T03:29:32.353Z,51.90
2022-10-11T03:30:32.295Z,44.50
2022-10-11T03:31:32.232Z,62.70
2022-10-11T03:32:33.717Z,44.70
2022-10-11T03:33:32.093Z,57.80
2022-10-11T03:34:32.031Z,42.60
2022-10-11T03:35:31.965Z,44.50
2022-10-11T03:36:31.902Z,37.90
2022-10-11T03:37:31.845Z,42.00
2022-10-11T03:38:33.698Z,48.60
2022-10-11T03:39:31.717Z,44.80
2022-10-11T03:40:31.640Z,51.60
2022-10-11T03:41:31.588Z,43.10
2022-10-11T03:42:31.517Z,54.70
2022-10-11T03:43:31.465Z,48.40
2022-10-11T03:44:32.173Z,59.00
2022-10-11T03:45:31.340Z,58.20
2022-10-11T03:46:31.255Z,49.10
2022-10-11T03:47:31.207Z,39.60
2022-10-11T03:48:31.138Z,45.10
2022-10-11T03:49:31.074Z,52.60
2022-10-11T03:50:31.837Z,45.50
2022-10-11T03:51:30.944Z,53.20
2022-10-11T03:52:30.885Z,61.50
2022-10-11T03:53:30.822Z,39.50
2022-10-11T03:54:30.760Z,56.40
2022-10-11T03:55:30.702Z,45.70
2022-10-11T03:56:30.624Z,46.20
2022-10-11T03:57:30.567Z,46.20
2022-10-11T03:58:30.486Z,45.00
2022-10-11T03:59:30.454Z,59.60
2022-10-11T04:00:30.371Z,37.60
2022-10-11T04:01:30.419Z,34.90
2022-10-11T04:02:30.251Z,61.40
2022-10-11T04:03:30.182Z,63.00
2022-10-11T04:04:30.117Z,53.80
2022-10-11T04:05:30.029Z,51.60
2022-10-11T04:06:29.979Z,55.50
2022-10-11T04:07:29.916Z,47.80
2022-10-11T04:08:29.999Z,59.10
2022-10-11T04:09:29.796Z,48.10
2022-10-11T04:10:29.753Z,61.90
2022-10-11T04:11:29.655Z,53.30
2022-10-11T04:12:29.594Z,38.50
2022-10-11T04:13:29.517Z,55.10
2022-10-11T04:14:29.479Z,67.90
2022-10-11T04:15:29.401Z,48.70
2022-10-11T04:16:29.343Z,55.20
2022-10-11T04:17:29.259Z,57.60
2022-10-11T04:18:29.228Z,45.00
2022-10-11T04:19:29.129Z,48.70
2022-10-11T04:20:29.104Z,53.80
2022-10-11T04:21:29.023Z,45.80
2022-10-11T04:22:28.939Z,33.30
2022-10-11T04:23:28.874Z,45.60
2022-10-11T04:24:28.829Z,52.00
2022-10-11T04:25:28.762Z,46.00
2022-10-11T04:26:28.707Z,42.00
2022-10-11T04:27:28.619Z,40.80
2022-10-11T04:28:28.597Z,33.80
2022-10-11T04:29:32.375Z,53.90
2022-10-11T04:30:28.440Z,52.00
2022-10-11T04:31:28.360Z,54.00
2022-10-11T04:32:28.338Z,47.50
2022-10-11T04:33:28.226Z,55.90
2022-10-11T04:34:28.162Z,49.20
2022-10-11T04:35:28.115Z,50.80
2022-10-11T04:36:28.038Z,49.20
2022-10-11T04:37:27.988Z,54.00
2022-10-11T04:38:31.043Z,41.70
2022-10-11T04:39:27.844Z,56.30
2022-10-11T04:40:27.797Z,46.30
2022-10-11T04:41:27.731Z,44.50
2022-10-11T04:42:27.675Z,40.90
2022-10-11T04:43:27.619Z,63.90
2022-10-11T04:44:27.554Z,45.70
2022-10-11T04:45:27.479Z,46.40
2022-10-11T04:46:27.410Z,59.60
2022-10-11T04:47:27.343Z,51.10
2022-10-11T04:48:27.311Z,41.40
2022-10-11T04:49:27.216Z,42.10
2022-10-11T04:50:27.151Z,51.80
2022-10-11T04:51:27.116Z,42.30
2022-10-11T04:52:27.029Z,53.20
2022-10-11T04:53:26.944Z,53.50
2022-10-11T04:54:26.891Z,57.80
2022-10-11T04:55:26.817Z,61.10
2022-10-11T04:56:26.785Z,75.50
2022-10-11T04:57:26.687Z,47.30
2022-10-11T04:58:26.625Z,55.70
2022-10-11T04:59:26.572Z,58.90
2022-10-11T05:00:26.490Z,66.40
2022-10-11T05:01:26.440Z,66.70
2022-10-11T05:02:26.451Z,47.90
2022-10-11T05:03:26.329Z,48.10
2022-10-11T05:04:26.259Z,64.80
2022-10-11T05:05:26.170Z,74.60
2022-10-11T05:06:26.107Z,51.80
2022-10-11T05:07:26.074Z,81.80
2022-10-11T05:08:27.552Z,64.20
2022-10-11T05:09:25.923Z,66.90
2022-10-11T05:10:25.854Z,81.40
2022-10-11T05:11:25.743Z,85.50
2022-10-11T05:12:25.729Z,62.20
2022-10-11T05:13:25.621Z,75.50
2022-10-11T05:14:27.098Z,84.00
2022-10-11T05:15:25.489Z,56.40
2022-10-11T05:16:25.428Z,57.00
2022-10-11T05:17:25.364Z,70.80
2022-10-11T05:18:25.285Z,56.30
2022-10-11T05:19:25.213Z,60.60
2022-10-11T05:20:25.174Z,73.60
2022-10-11T05:21:25.102Z,62.60
2022-10-11T05:22:25.032Z,53.00
2022-10-11T05:23:25.073Z,48.10
2022-10-11T05:24:24.909Z,68.30
2022-10-11T05:25:24.840Z,56.70
2022-10-11T05:26:25.581Z,57.80
2022-10-11T05:27:24.707Z,66.10
2022-10-11T05:28:24.728Z,66.90
2022-10-11T05:29:24.586Z,55.10
2022-10-11T05:30:24.512Z,61.00
2022-10-11T05:31:24.444Z,62.30
2022-10-11T05:32:27.694Z,65.40
2022-10-11T05:33:24.323Z,63.80
2022-10-11T05:34:24.282Z,68.00
2022-10-11T05:35:24.205Z,75.20
2022-10-11T05:36:24.148Z,81.70
2022-10-11T05:37:24.066Z,70.40
2022-10-11T05:38:25.551Z,67.50
2022-10-11T05:39:23.936Z,84.50
2022-10-11T05:40:23.868Z,89.20
2022-10-11T05:41:23.822Z,81.30
2022-10-11T05:42:23.772Z,74.80
2022-10-11T05:43:23.673Z,83.30
2022-10-11T05:44:23.637Z,91.90
2022-10-11T05:45:23.544Z,105.00
2022-10-11T05:46:23.489Z,76.20
2022-10-11T05:47:23.420Z,81.50
2022-10-11T05:48:23.368Z,81.40
2022-10-11T05:49:23.304Z,77.00
2022-10-11T05:50:24.440Z,79.30
2022-10-11T05:51:23.193Z,88.60
2022-10-11T05:52:23.118Z,64.70
2022-10-11T05:53:23.083Z,72.60
2022-10-11T05:54:22.961Z,68.10
2022-10-11T05:55:22.899Z,67.50
2022-10-11T05:56:23.639Z,64.70
2022-10-11T05:57:22.791Z,75.10
2022-10-11T05:58:22.709Z,54.10
2022-10-11T05:59:22.641Z,76.80
2022-10-11T06:00:22.598Z,84.30
2022-10-11T06:01:22.595Z,80.20
2022-10-11T06:02:22.514Z,83.50
2022-10-11T06:03:22.393Z,76.20
2022-10-11T06:04:22.342Z,67.30
2022-10-11T06:05:22.304Z,46.50
2022-10-11T06:06:22.192Z,39.20
2022-10-11T06:07:22.149Z,35.30
2022-10-11T06:08:22.865Z,37.50
2022-10-11T06:09:22.026Z,46.20
2022-10-11T06:10:22.059Z,32.80
2022-10-11T06:11:21.879Z,68.40
2022-10-11T06:12:21.837Z,37.80
2022-10-11T06:13:21.756Z,35.60
2022-10-11T06:14:21.735Z,35.10
2022-10-11T06:15:21.621Z,38.30
2022-10-11T06:16:21.575Z,42.10
2022-10-11T06:17:21.522Z,48.50
2022-10-11T06:18:21.428Z,45.00
2022-10-11T06:19:21.405Z,42.20
2022-10-11T06:20:21.322Z,46.30
2022-10-11T06:21:21.265Z,41.00
2022-10-11T06:22:21.194Z,38.80
2022-10-11T06:23:21.118Z,39.00
2022-10-11T06:24:21.036Z,65.50
2022-10-11T06:25:20.986Z,39.30
2022-10-11T06:26:21.721Z,44.70
2022-10-11T06:27:20.857Z,34.40
2022-10-11T06:28:20.867Z,30.90
2022-10-11T06:29:20.738Z,48.30
2022-10-11T06:30:20.720Z,41.10
2022-10-11T06:31:20.638Z,42.20
2022-10-11T06:32:20.551Z,40.80
2022-10-11T06:33:20.461Z,28.90
2022-10-11T06:34:20.396Z,37.20
2022-10-11T06:35:20.341Z,29.00
2022-10-11T06:36:20.286Z,51.80
2022-10-11T06:37:20.207Z,41.50
2022-10-11T06:38:20.198Z,32.70
2022-10-11T06:39:20.080Z,33.60
2022-10-11T06:40:20.032Z,41.10
2022-10-11T06:41:19.953Z,35.40
2022-10-11T06:42:19.882Z,33.40
2022-10-11T06:43:19.836Z,38.00
2022-10-11T06:44:22.887Z,48.70
2022-10-11T06:45:19.701Z,59.70
2022-10-11T06:46:19.643Z,37.50
2022-10-11T06:47:19.562Z,26.50
2022-10-11T06:48:19.507Z,28.40
2022-10-11T06:49:22.974Z,46.00
2022-10-11T06:50:34.850Z,38.90
2022-10-11T06:51:19.314Z,44.60
2022-10-11T06:52:19.250Z,50.50
2022-10-11T06:53:19.188Z,49.50
2022-10-11T06:54:19.175Z,44.40
2022-10-11T06:55:19.049Z,41.90
2022-10-11T06:56:20.101Z,55.70
2022-10-11T06:57:18.935Z,50.90
2022-10-11T06:58:18.863Z,49.40
2022-10-11T06:59:18.788Z,59.00
2022-10-11T07:00:18.728Z,53.50
2022-10-11T07:01:18.751Z,50.80
2022-10-11T07:02:18.612Z,47.00
2022-10-11T07:03:18.531Z,47.30
2022-10-11T07:04:18.473Z,55.30
2022-10-11T07:05:18.409Z,37.20
2022-10-11T07:06:18.331Z,48.40
2022-10-11T07:07:18.300Z,49.90
2022-10-11T07:08:19.776Z,58.00
2022-10-11T07:09:18.160Z,49.00
2022-10-11T07:10:18.104Z,46.10
2022-10-11T07:11:18.044Z,53.70
2022-10-11T07:12:17.950Z,48.10
2022-10-11T07:13:17.927Z,38.00
2022-10-11T07:14:19.386Z,49.00
2022-10-11T07:15:17.767Z,53.50
2022-10-11T07:16:17.692Z,36.70
2022-10-11T07:17:17.655Z,39.30
2022-10-11T07:18:17.591Z,51.00
2022-10-11T07:19:17.510Z,38.20
2022-10-11T07:20:17.482Z,41.50
2022-10-11T07:21:17.379Z,59.00
2022-10-11T07:22:17.314Z,41.70
2022-10-11T07:23:17.274Z,53.40
2022-10-11T07:24:17.198Z,48.60
2022-10-11T07:25:17.136Z,54.70
2022-10-11T07:26:20.113Z,37.70
2022-10-11T07:27:17.010Z,42.20
2022-10-11T07:28:17.049Z,29.80
2022-10-11T07:29:16.873Z,40.10
2022-10-11T07:30:16.800Z,35.80
2022-10-11T07:31:16.814Z,37.30
2022-10-11T07:32:18.224Z,39.20
2022-10-11T07:33:16.638Z,104.60
2022-10-11T07:34:16.553Z,78.20
2022-10-11T07:35:16.477Z,59.40
2022-10-11T07:36:16.466Z,52.10
2022-10-11T07:37:16.375Z,41.80
2022-10-11T07:38:16.322Z,51.90
2022-10-11T07:39:16.524Z,42.90
2022-10-11T07:40:16.180Z,44.20
2022-10-11T07:41:16.102Z,43.20
2022-10-11T07:42:16.036Z,62.90
2022-10-11T07:43:15.980Z,54.70
2022-10-11T07:44:15.920Z,67.00
2022-10-11T07:45:15.932Z,55.40
2022-10-11T07:46:15.781Z,44.00
2022-10-11T07:47:15.715Z,44.60
2022-10-11T07:48:15.641Z,47.00
2022-10-11T07:49:15.603Z,49.10
2022-10-11T07:50:17.072Z,31.00
2022-10-11T07:51:15.477Z,41.40
2022-10-11T07:52:15.402Z,44.70
2022-10-11T07:53:15.333Z,62.80
2022-10-11T07:54:15.274Z,53.40
2022-10-11T07:55:15.187Z,54.60
2022-10-11T07:56:15.154Z,48.30
2022-10-11T07:57:15.071Z,52.10
2022-10-11T07:58:15.019Z,61.10
2022-10-11T07:59:14.939Z,45.20
2022-10-11T08:00:14.891Z,47.30
2022-10-11T08:01:14.934Z,46.40
2022-10-11T08:02:16.326Z,39.20
2022-10-11T08:03:14.729Z,51.40
2022-10-11T08:04:14.656Z,39.60
2022-10-11T08:05:14.582Z,46.30
2022-10-11T08:06:14.542Z,51.50
2022-10-11T08:07:14.437Z,34.30
2022-10-11T08:08:18.154Z,49.70
2022-10-11T08:09:14.314Z,58.50
2022-10-11T08:10:14.265Z,53.20
2022-10-11T08:11:14.171Z,40.30
2022-10-11T08:12:14.175Z,47.00
2022-10-11T08:13:14.056Z,43.00
2022-10-11T08:14:14.784Z,50.20
2022-10-11T08:15:13.938Z,54.30
2022-10-11T08:16:13.874Z,47.70
2022-10-11T08:17:13.798Z,53.20
2022-10-11T08:18:13.752Z,60.50
2022-10-11T08:19:13.786Z,41.90
2022-10-11T08:20:13.640Z,52.80
2022-10-11T08:21:13.538Z,46.20
2022-10-11T08:22:13.499Z,51.90
2022-10-11T08:23:13.434Z,45.10
2022-10-11T08:24:13.356Z,41.50
2022-10-11T08:25:13.279Z,54.00
2022-10-11T08:26:13.247Z,38.20
2022-10-11T08:27:13.148Z,46.00
2022-10-11T08:28:13.148Z,46.50
2022-10-11T08:29:13.049Z,55.30
2022-10-11T08:30:12.954Z,49.30
2022-10-11T08:31:12.894Z,44.40
2022-10-11T08:32:12.923Z,53.90
2022-10-11T08:33:12.799Z,55.40
2022-10-11T08:34:12.736Z,46.50
2022-10-11T08:35:12.663Z,42.10
2022-10-11T08:36:12.623Z,49.10
2022-10-11T08:37:12.508Z,42.50
2022-10-11T08:38:13.661Z,51.60
2022-10-11T08:39:12.401Z,59.20
2022-10-11T08:40:12.323Z,41.60
2022-10-11T08:41:12.267Z,36.50
2022-10-11T08:42:12.217Z,41.30
2022-10-11T08:43:12.129Z,46.50
2022-10-11T08:44:12.428Z,51.30
2022-10-11T08:45:12.414Z,59.10
2022-10-11T08:46:11.931Z,49.60
2022-10-11T08:47:11.879Z,47.90
2022-10-11T08:48:11.828Z,53.90
2022-10-11T08:49:11.749Z,55.40
2022-10-11T08:50:11.692Z,39.60
2022-10-11T08:51:11.624Z,36.20
2022-10-11T08:52:11.574Z,40.60
2022-10-11T08:53:11.505Z,31.90
2022-10-11T08:54:11.515Z,35.50
2022-10-11T08:55:11.373Z,39.20
2022-10-11T08:56:11.375Z,37.10
2022-10-11T08:57:11.266Z,48.80
2022-10-11T08:58:11.203Z,44.10
2022-10-11T08:59:11.117Z,36.80
2022-10-11T09:00:11.036Z,39.00
2022-10-11T09:01:11.054Z,45.90
2022-10-11T09:02:12.147Z,34.20
2022-10-11T09:03:10.848Z,39.10
2022-10-11T09:04:10.865Z,33.70
2022-10-11T09:05:10.750Z,36.70
2022-10-11T09:06:10.666Z,54.30
2022-10-11T09:07:10.610Z,39.30
2022-10-11T09:08:11.604Z,33.50
2022-10-11T09:09:10.487Z,38.30
2022-10-11T09:10:10.398Z,33.90
2022-10-11T09:11:10.346Z,45.30
2022-10-11T09:12:10.287Z,27.60
2022-10-11T09:13:10.201Z,29.50
2022-10-11T09:14:10.169Z,30.10
2022-10-11T09:15:10.076Z,26.20
2022-10-11T09:16:10.032Z,20.80
2022-10-11T09:17:10.004Z,36.00
2022-10-11T09:18:10.021Z,33.10
2022-10-11T09:19:09.819Z,29.60
2022-10-11T09:20:09.831Z,31.00
2022-10-11T09:21:09.706Z,36.90
2022-10-11T09:22:10.702Z,30.20
2022-10-11T09:23:09.581Z,33.30
2022-10-11T09:24:10.190Z,42.60
2022-10-11T09:25:09.437Z,43.90
2022-10-11T09:26:09.642Z,28.10
2022-10-11T09:27:09.321Z,34.50
2022-10-11T09:28:09.295Z,22.80
2022-10-11T09:29:09.278Z,35.70
2022-10-11T09:30:09.133Z,29.40
2022-10-11T09:31:09.060Z,33.60
2022-10-11T09:32:12.186Z,37.10
2022-10-11T09:33:08.932Z,33.00
2022-10-11T09:34:08.889Z,44.50
2022-10-11T09:35:08.797Z,34.60
2022-10-11T09:36:08.967Z,26.60
2022-10-11T09:37:08.695Z,37.50
2022-10-11T09:38:08.642Z,32.10
2022-10-11T09:39:08.546Z,34.20
2022-10-11T09:40:08.514Z,30.80
2022-10-11T09:41:08.420Z,31.10
2022-10-11T09:42:08.367Z,32.60
2022-10-11T09:43:08.299Z,38.70
2022-10-11T09:44:08.260Z,53.40
2022-10-11T09:45:08.163Z,37.20
2022-10-11T09:46:08.446Z,32.00
2022-10-11T09:47:08.064Z,36.50
2022-10-11T09:48:07.967Z,46.20
2022-10-11T09:49:07.927Z,44.00
2022-10-11T09:50:08.144Z,45.50
2022-10-11T09:51:07.787Z,37.50
2022-10-11T09:52:07.723Z,47.10
2022-10-11T09:53:07.671Z,29.80
2022-10-11T09:54:07.628Z,37.70
2022-10-11T09:55:07.532Z,45.10
2022-10-11T09:56:07.951Z,46.20
2022-10-11T09:57:07.403Z,40.70
2022-10-11T09:58:07.345Z,29.60
2022-10-11T09:59:07.292Z,38.90
2022-10-11T10:00:07.202Z,39.00
2022-10-11T10:01:08.355Z,44.40
2022-10-11T10:02:07.937Z,46.40
2022-10-11T10:03:07.027Z,31.00
2022-10-11T10:04:06.946Z,36.40
2022-10-11T10:05:06.900Z,28.90
2022-10-11T10:06:07.537Z,28.80
2022-10-11T10:07:06.756Z,44.80
2022-10-11T10:08:06.704Z,43.10
2022-10-11T10:09:06.652Z,48.30
2022-10-11T10:10:06.565Z,32.40
2022-10-11T10:11:06.494Z,50.00
2022-10-11T10:12:06.451Z,37.60
2022-10-11T10:13:06.387Z,34.20
2022-10-11T10:14:06.361Z,43.70
2022-10-11T10:15:06.246Z,61.50
2022-10-11T10:16:06.586Z,34.70
2022-10-11T10:17:06.131Z,33.60
2022-10-11T10:18:06.050Z,34.40
2022-10-11T10:19:06.143Z,31.70
2022-10-11T10:20:05.942Z,41.00
2022-10-11T10:21:05.934Z,35.90
2022-10-11T10:22:05.809Z,43.00
2022-10-11T10:23:05.736Z,37.00
2022-10-11T10:24:05.692Z,30.70
2022-10-11T10:25:05.599Z,42.60
2022-10-11T10:26:06.027Z,38.10
2022-10-11T10:27:05.495Z,37.20
2022-10-11T10:28:05.425Z,34.50
2022-10-11T10:29:05.371Z,44.20
2022-10-11T10:30:05.305Z,30.10
2022-10-11T10:31:05.261Z,38.30
2022-10-11T10:32:20.499Z,27.60
2022-10-11T10:33:05.139Z,34.90
2022-10-11T10:34:05.035Z,40.80
2022-10-11T10:35:04.977Z,39.60
2022-10-11T10:36:05.132Z,40.80
2022-10-11T10:37:04.837Z,37.40
2022-10-11T10:38:05.597Z,51.10
2022-10-11T10:39:04.736Z,30.80
2022-10-11T10:40:04.673Z,29.40
2022-10-11T10:41:04.599Z,49.10
2022-10-11T10:42:04.545Z,37.30
2022-10-11T10:43:04.467Z,27.40
2022-10-11T10:44:05.616Z,44.50
2022-10-11T10:45:07.328Z,26.30
2022-10-11T10:46:04.620Z,22.30
2022-10-11T10:47:04.215Z,39.30
2022-10-11T10:48:04.152Z,26.00
2022-10-11T10:49:41.530Z,24.30
2022-10-11T10:50:04.036Z,45.80
2022-10-11T10:51:08.344Z,33.00
2022-10-11T10:52:03.908Z,28.40
2022-10-11T10:53:04.610Z,45.40
2022-10-11T10:54:03.780Z,26.50
2022-10-11T10:55:03.704Z,23.10
2022-10-11T10:56:04.063Z,25.00
2022-10-11T10:57:03.607Z,26.00
2022-10-11T10:58:03.520Z,26.20
2022-10-11T10:59:03.442Z,35.40
2022-10-11T11:00:03.380Z,34.10
2022-10-11T11:01:03.321Z,38.90
2022-10-11T11:02:21.409Z,22.30
2022-10-11T11:03:03.200Z,31.30
2022-10-11T11:04:03.131Z,42.70
2022-10-11T11:05:03.121Z,37.20
2022-10-11T11:06:03.447Z,47.30
2022-10-11T11:07:03.699Z,20.30
2022-10-11T11:08:08.156Z,35.80
2022-10-11T11:09:07.107Z,34.00
2022-10-11T11:10:03.500Z,33.10
2022-10-11T11:11:03.540Z,29.80
2022-10-11T11:12:02.624Z,29.50
2022-10-11T11:13:02.572Z,19.30
2022-10-11T11:14:02.509Z,31.80
2022-10-11T11:15:02.588Z,24.70
2022-10-11T11:16:02.718Z,14.00
2022-10-11T11:17:02.310Z,36.40
2022-10-11T11:18:02.247Z,25.30
2022-10-11T11:19:02.193Z,40.90
2022-10-11T11:20:03.107Z,45.20
2022-10-11T11:21:02.088Z,20.90
2022-10-11T11:22:01.989Z,28.30
2022-10-11T11:23:01.923Z,23.30
2022-10-11T11:24:01.867Z,28.60
2022-10-11T11:25:01.787Z,21.10
2022-10-11T11:26:01.818Z,21.70
2022-10-11T11:27:01.712Z,22.90
2022-10-11T11:28:01.624Z,30.90
2022-10-11T11:29:01.526Z,25.70
2022-10-11T11:30:01.669Z,29.60
2022-10-11T11:31:01.404Z,27.80
2022-10-11T11:32:03.633Z,30.00
2022-10-11T11:33:01.287Z,23.60
2022-10-11T11:34:01.228Z,32.70
2022-10-11T11:35:01.170Z,23.50
2022-10-11T11:36:01.126Z,22.20
2022-10-11T11:37:01.059Z,16.60
2022-10-11T11:38:06.100Z,27.50
2022-10-11T11:39:00.899Z,27.60
2022-10-11T11:40:00.864Z,18.60
2022-10-11T11:41:00.798Z,44.10
2022-10-11T11:42:00.713Z,29.00
2022-10-11T11:43:01.599Z,14.80
2022-10-11T11:44:02.100Z,21.70
2022-10-11T11:45:00.531Z,22.80
2022-10-11T11:46:00.470Z,23.30
2022-10-11T11:47:00.426Z,19.30
2022-10-11T11:48:00.353Z,31.20
2022-10-11T11:49:00.286Z,32.00
2022-10-11T11:50:00.337Z,19.40
2022-10-11T11:51:00.151Z,26.00
2022-10-11T11:52:00.086Z,20.40
2022-10-11T11:53:00.026Z,13.60
2022-10-11T11:53:59.945Z,26.20
2022-10-11T11:55:03.787Z,27.70
2022-10-11T11:56:01.029Z,17.80
2022-10-11T11:56:59.745Z,27.00
2022-10-11T11:58:03.301Z,19.50
2022-10-11T11:58:59.637Z,23.00
2022-10-11T11:59:59.565Z,26.40
2022-10-11T12:00:59.511Z,19.90
2022-10-11T12:01:59.492Z,24.10
2022-10-11T12:02:59.364Z,21.30
2022-10-11T12:04:00.100Z,16.60
2022-10-11T12:04:59.243Z,26.20
2022-10-11T12:05:59.197Z,27.90
2022-10-11T12:07:15.342Z,16.00
2022-10-11T12:07:59.154Z,22.00
2022-10-11T12:08:59.369Z,25.70
2022-10-11T12:09:58.934Z,17.00
2022-10-11T12:10:58.875Z,14.20
2022-10-11T12:11:58.844Z,23.60
2022-10-11T12:12:58.743Z,12.60
2022-10-11T12:13:59.995Z,16.90
2022-10-11T12:14:58.631Z,23.50
2022-10-11T12:15:58.576Z,11.90
2022-10-11T12:16:58.515Z,38.30
2022-10-11T12:18:00.632Z,14.60
2022-10-11T12:18:58.366Z,25.60
2022-10-11T12:19:58.307Z,18.40
2022-10-11T12:20:58.262Z,18.30
2022-10-11T12:21:58.185Z,19.00
2022-10-11T12:22:58.122Z,15.30
2022-10-11T12:23:58.065Z,26.70
2022-10-11T12:24:58.001Z,25.20
2022-10-11T12:25:57.924Z,25.40
2022-10-11T12:26:57.843Z,22.40
2022-10-11T12:27:57.863Z,20.10
2022-10-11T12:28:57.748Z,13.20
2022-10-11T12:29:57.659Z,14.20
2022-10-11T12:30:57.597Z,17.60
2022-10-11T12:32:00.892Z,22.70
2022-10-11T12:32:57.499Z,14.40
2022-10-11T12:33:57.396Z,18.20
2022-10-11T12:34:57.357Z,22.70
2022-10-11T12:35:57.322Z,14.00
2022-10-11T12:36:57.307Z,18.30
2022-10-11T12:37:57.173Z,9.60
2022-10-11T12:38:57.099Z,21.20
2022-10-11T12:39:57.035Z,14.80
2022-10-11T12:40:56.977Z,25.10
2022-10-11T12:41:56.896Z,22.70
2022-10-11T12:42:56.848Z,16.50
2022-10-11T12:43:56.774Z,10.60
2022-10-11T12:44:56.695Z,21.10
2022-10-11T12:45:56.676Z,15.40
2022-10-11T12:46:56.588Z,5.30
2022-10-11T12:47:56.548Z,12.10
2022-10-11T12:48:56.469Z,12.40
2022-10-11T12:49:56.397Z,11.60
2022-10-11T12:50:59.616Z,16.10
2022-10-11T12:51:56.274Z,15.30